Sagehen Creek Weather observations

Data are for observation ending at time listed.
 Day   Time    Ave.   Ave.  Ave.  Vector   Max.   Stn.    Total    Solar   Ave.  
  of    of     Air    Rel.  Wind   Wind    Wind   Baro.  Precip.   Rad.    Soil  
Year   Day     Temp.  Hum.  Speed  Dir.    Gust   Pres.                    Temp. 
2014   (PST)    F      %     mph   deg.    mph     mb.     in.     W/m2     F   
------------------------------------------------------------------------------
 273   20:00   40.2    88    0.0     0      0.0   835.1   13.32       0    999.0
 273   20:10   39.7    89    0.6   266      1.8   835.5   13.32       0    999.0
 273   20:20   39.2    89    0.3   236      1.4   835.3   13.32       0    999.0
 273   20:30   38.5    89    0.0     0      0.0   835.1   13.32       0    999.0
 273   20:40   38.0    90    0.6   267      1.1   835.4   13.32       0    999.0
 273   20:50   37.6    90    0.0     0      0.0   835.6   13.32       0    999.0
 273   21:00   36.8    90    0.0     0      0.0   835.7   13.32       0    999.0
 273   21:10   36.4    90    0.5   260      1.0   835.6   13.32       0    999.0
 273   21:20   35.8    90    0.0     0      0.0   835.6   13.32       0    999.0
 273   21:30   35.3    90    0.2   251      0.9   835.6   13.32       0    999.0
 273   21:40   34.8    90    0.0   234      0.6   836.2   13.32       0    999.0
 273   21:50   34.2    91    0.3   236      1.0   836.1   13.32       0    999.0
 273   22:00   33.7    91    0.1   256      0.7   836.0   13.32       0    999.0
 273   22:10   33.4    91    0.3   266      1.4   836.0   13.32       0    999.0
 273   22:20   33.0    92    0.3   242      1.5   836.0   13.32       0    999.0
 273   22:30   32.6    92    0.6   262      1.3   835.9   13.32       0    999.0
 273   22:40   32.4    92    0.6   284      1.8   835.5   13.32       0    999.0
 273   22:50   32.0    92    0.8   213      1.7   835.6   13.32       0    999.0
 273   23:00   31.9    92    0.4   260      1.4   835.7   13.32       0    999.0
 273   23:10   31.4    92    0.1   225      0.9   836.1   13.32       0    999.0
 273   23:20   30.9    92    0.7   240      1.4   836.2   13.32       0    999.0
 273   23:30   30.5    92    0.5   222      1.5   836.2   13.32       0    999.0
 273   23:40   30.2    92    0.6   220      1.3   835.7   13.32       0    999.0
 273   23:50   29.8    92    0.4   268      0.9   835.7   13.32       0    999.0
 274    0:00   29.5    92    0.5   257      1.1   835.7   13.32       0    999.0
 274    0:10   29.3    93    0.3   251      0.9   836.0   13.32       0    999.0
 274    0:20   29.0    93    0.1   243      1.1   836.0   13.32       0    999.0
 274    0:30   28.7    93    0.6   250      1.6   835.9   13.32       0    999.0
 274    0:40   28.5    93    0.4   243      1.5   836.4   13.32       0    999.0
 274    0:50   28.3    93    0.4   258      1.6   836.3   13.32       0    999.0
 274    1:00   28.2    93    0.5   258      1.5   836.3   13.32       0    999.0
 274    1:10   28.0    93    0.2   232      1.0   836.0   13.32       0    999.0
 274    1:20   27.8    93    0.3   234      1.4   836.2   13.32       0    999.0
 274    1:30   27.6    93    0.4   233      1.1   836.3   13.32       0    999.0
 274    1:40   27.6    93    0.4   219      1.3   836.4   13.32       0    999.0
 274    1:50   27.4    93    0.4   215      1.4   836.2   13.32       0    999.0
 274    2:00   27.4    93    0.4   258      1.2   835.9   13.32       0    999.0
 274    2:10   27.3    93    0.3   215      1.1   835.9   13.32       0    999.0
 274    2:20   27.2    93    0.4   235      1.0   836.2   13.32       0    999.0
 274    2:30   27.0    93    0.1   274      0.7   836.5   13.32       0    999.0
 274    2:40   27.0    93    0.2   219      0.9   836.2   13.32       0    999.0
 274    2:50   26.9    93    0.4   249      1.5   836.1   13.32       0    999.0
 274    3:00   26.9    93    0.3   251      1.6   836.1   13.32       0    999.0
 274    3:10   26.8    93    0.1   242      0.6   836.4   13.32       0    999.0
 274    3:20   26.7    93    0.0   258      0.3   836.4   13.32       0    999.0
 274    3:30   26.8    93    0.4   262      1.4   836.4   13.32       0    999.0
 274    3:40   26.8    93    0.2   242      1.0   836.1   13.32       0    999.0
 274    3:50   26.8    94    0.3   218      1.6   836.4   13.32       0    999.0
 274    4:00   26.7    93    0.2   250      0.9   836.6   13.32       0    999.0
 274    4:10   26.7    94    0.6   238      1.4   836.8   13.32       0    999.0
 274    4:20   26.7    94    0.2   244      0.9   836.6   13.32       0    999.0
 274    4:30   26.6    94    0.6   245      1.6   836.4   13.32       0    999.0
 274    4:40   26.7    94    0.3   251      1.2   836.6   13.32       0    999.0
 274    4:50   26.5    94    0.3   244      1.5   836.6   13.32       0    999.0
 274    5:00   26.4    94    0.6   240      1.3   836.7   13.32       0    999.0
 274    5:10   26.4    94    0.7   260      1.4   836.5   13.32       0    999.0
 274    5:20   26.2    93    0.0   256      0.3   836.7   13.32       0    999.0
 274    5:30   26.2    93    0.4   274      1.4   836.8   13.32       0    999.0
 274    5:40   26.0    93    0.2   260      0.6   837.0   13.32       0    999.0
 274    5:50   25.9    94    0.2   258      0.8   837.0   13.32       1    999.0
 274    6:00   25.8    94    0.0   299      0.3   836.9   13.32       2    999.0
 274    6:10   25.8    94    0.3   291      1.6   837.1   13.32       5    999.0
 274    6:20   25.8    94    0.3   264      1.1   837.2   13.32       8    999.0
 274    6:30   25.8    93    0.0   269      0.4   837.3   13.32      10    999.0
 274    6:40   25.9    93    0.0     0      0.0   837.2   13.32      16    999.0
 274    6:50   26.1    93    0.2   260      1.0   837.0   13.32      33    999.0
 274    7:00   26.6    94    0.1   265      0.5   836.8   13.32      70    999.0
 274    7:10   27.6    94    0.0     0      0.0   837.5   13.32     202    999.0
 274    7:20   28.9    93    0.0     0      0.0   837.3   13.32     239    999.0
 274    7:30   30.4    92    0.2   188      1.2   837.2   13.32     272    999.0
 274    7:40   32.0    88    0.0     0      0.0   837.4   13.32     301    999.0
 274    7:50   33.6    86    0.0     0      0.0   837.5   13.32     330    999.0
 274    8:00   35.6    82    0.1   186      0.7   837.7   13.32     362    999.0
 274    8:10   37.7    80    0.1   230      0.6   837.5   13.32     393    999.0
 274    8:20   40.5    76    0.3   131      1.5   837.5   13.31     423    999.0
 274    8:30   43.8    59    1.5    92      3.5   837.5   13.32     453    999.0
 274    8:40   46.4    50    1.2   112      2.6   837.8   13.32     479    999.0
 274    8:50   46.5    46    3.5    92      5.5   837.5   13.32     502    999.0
 274    9:00   46.9    43    2.4   105      4.7   837.3   13.31     528    999.0
 274    9:10   48.5    42    1.3   103      4.8   837.9   13.31     554    999.0
 274    9:20   49.4    40    2.0    97      6.2   837.7   13.31     579    999.0
 274    9:30   49.8    39    3.0    76      6.8   837.6   13.31     600    999.0
 274    9:40   49.6    38    3.4   109      6.3   837.9   13.31     620    999.0
 274    9:50   50.5    39    2.4    86      5.6   837.8   13.31     639    999.0
 274   10:00   51.2    38    3.2   113      7.7   837.6   13.31     659    999.0
 274   10:10   51.0    37    3.1    78      6.6   837.6   13.31     677    999.0
 274   10:20   51.7    36    2.9    85      8.4   837.4   13.31     694    999.0
 274   10:30   52.0    35    2.8    92      6.6   837.3   13.31     683    999.0
 274   10:40   53.3    34    3.1    90      6.5   837.4   13.30     726    999.0
 274   10:50   52.6    36    4.2    97      8.8   837.5   13.30     733    999.0
 274   11:00   53.1    35    3.1    84     10.1   837.5   13.30     746    999.0
 274   11:10   53.3    34    3.7   103      8.3   837.4   13.30     758    999.0
 274   11:20   54.1    32    1.9    88      8.4   837.5   13.30     761    999.0
 274   11:30   54.0    32    4.3   105      9.5   837.6   13.30     772    999.0
 274   11:40   53.5    30    4.8   100     11.2   837.5   13.30     770    999.0
 274   11:50   54.2    30    5.0    97     11.5   837.5   13.30     770    999.0
 274   12:00   54.2    29    4.6    95      9.6   837.4   13.30     766    999.0
 274   12:10   54.5    28    4.5   100      9.2   837.5   13.30     757    999.0
 274   12:20   55.2    27    3.1   100      7.2   837.6   13.30     751    999.0
 274   12:30   55.3    27    4.6    96      9.1   837.6   13.30     751    999.0
 274   12:40   55.3    26    3.6    93      7.8   837.5   13.30     749    999.0
 274   12:50   55.9    27    4.9    95     10.8   837.5   13.30     742    999.0
 274   13:00   56.3    27    3.6   103      7.4   837.5   13.30     734    999.0
 274   13:10   56.6    25    4.4    98      9.9   836.9   13.30     723    999.0
 274   13:20   57.0    24    3.5    82      8.5   837.1   13.30     713    999.0
 274   13:30   57.4    22    4.6    98      8.4   837.2   13.30     704    999.0
 274   13:40   56.9    23    4.4   105      9.5   837.3   13.30     686    999.0
 274   13:50   57.1    23    3.6    92      8.5   837.3   13.30     670    999.0
 274   14:00   57.4    23    3.8    99      7.4   837.2   13.30     651    999.0
 274   14:10   57.7    23    2.8   106      6.5   837.2   13.29     632    999.0
 274   14:20   57.7    23    4.7    97      8.2   837.2   13.29     611    999.0
 274   14:30   58.0    23    3.4   103      7.9   837.2   13.29     588    999.0
 274   14:40   58.6    23    3.0    99      7.3   837.1   13.29     566    999.0
 274   14:50   59.5    21    1.8    87      4.8   837.1   13.30     542    999.0
 274   15:00   59.6    22    2.9    84      7.7   837.0   13.30     515    999.0
 274   15:10   59.6    22    1.9    95      6.4   837.3   13.31     487    999.0
 274   15:20   59.7    22    1.9    93      5.5   837.3   13.31     458    999.0
 274   15:30   58.9    23    3.2    95      7.5   837.2   13.31     428    999.0
 274   15:40   57.6    24    2.3    98      6.1   837.2   13.31     340    999.0
 274   15:50   57.3    24    2.4    89      5.1   837.3   13.31     141    999.0
 274   16:00   57.0    25    2.4    99      5.1   837.3   13.31      26    999.0
 274   16:10   56.7    25    3.0    92      5.6   837.4   13.31      23    999.0
 274   16:20   56.3    26    2.8    98      5.4   837.5   13.31      22    999.0
 274   16:30   55.6    27    2.7    97      5.1   837.5   13.31      21    999.0
 274   16:40   55.1    28    1.5    89      3.5   837.5   13.31      19    999.0
 274   16:50   54.1    31    1.0    86      4.0   837.5   13.31      17    999.0
 274   17:00   53.2    32    1.4    95      5.1   837.4   13.31      17    999.0
 274   17:10   51.9    37    0.3   112      1.4   837.2   13.31      15    999.0
 274   17:20   49.3    52    0.2   270      1.0   837.4   13.31       9    999.0
 274   17:30   46.8    57    0.4   254      1.1   837.6   13.31       7    999.0
 274   17:40   45.0    58    0.8   267      1.5   837.8   13.31       5    999.0
 274   17:50   43.6    62    0.7   253      1.2   837.6   13.31       3    999.0
 274   18:00   42.4    66    0.6   232      1.5   837.4   13.31       1    999.0
 274   18:10   41.1    66    0.7   254      1.3   837.9   13.31       0    999.0
 274   18:20   39.8    68    0.3   258      0.7   838.0   13.31       0    999.0
 274   18:30   38.9    69    0.5   252      1.1   838.1   13.31       0    999.0
 274   18:40   37.9    71    0.4   251      1.2   837.8   13.31       0    999.0
 274   18:50   37.0    71    0.5   252      1.2   838.0   13.31       0    999.0
 274   19:00   36.1    74    0.4   226      0.9   838.2   13.31       0    999.0
 274   19:10   35.4    73    0.4   263      1.5   838.0   13.31       0    999.0
 274   19:20   34.8    74    0.1   267      0.7   838.2   13.31       0    999.0
 274   19:30   34.1    74    0.3   247      0.9   838.5   13.31       0    999.0
 274   19:40   33.3    76    0.5   248      0.8   838.4   13.31       0    999.0
 274   19:50   32.7    77    0.2   223      0.9   838.3   13.31       0    999.0

Return to Sagehen Creek graphs page.


Western Regional Climate Center,wrcc@dri.edu